windsock image

Welcome to Bigfield Strip.

anemometer image

 Help for dials.  
Local Met:

10 Min average:  
254 ° / 4.1 kts (2.6)
252° / 1.9

10.6°C C
Dew Point:  
9.4°C C
1031.4 mb mb
BigField Strip. This image updates approximately every minute, it can have a two minute delay.  

92 %
Sunrise:   06:51z
Sunset:   16:42z
   More met info, trends, radar, history etc. available here   

LUTON Metar   EGGW 280550Z AUTO 23010KT 9999 NCD 11/10 Q1031
  TAF   2016/10/28 06:15 TAF EGGW 280455Z 2806/2906 25009KT 9999 SCT020 TEMPO 2806/2906 8000 BKN012 PROB30 TEMPO 2811/2906 3000 BR BKN006
BENSON Metar   EGUB 280550Z 17007KT 9999 BKN023 10/09 Q1032 WHT NOSIG
  TAF   2016/10/28 06:03 TAF EGUB 280445Z 2806/2815 24008KT 9999 BKN020 TEMPO 2810/2815 SCT014
Big Field view 1 icon   Big Field view 2 icon   Big Field view 3 icon   Chart AL3a in PDF icon   Chart AL3a in Word icon

This information is provided by the Airstrip unofficial weather station, DO NOT depend on the data provided here for any purpose.
This page is updated for latest Metars & TAF's every 5 minutes. Refresh the browser to check for the lastest.
Page designed for a minimum browser size of 1024x768.
© Copyright 2016 BigField Strip. This page auto generated 06:21 UTC - 28/10/2016   Contact Us
Valid HTML 4.01 Transitional     Windows uptime: 4 Days 3 Hours 49 Minutes 21 Seconds    WD started: 02:37 24/10/16    Free memory: 1515MB     Valid CSS!